Time;durP1;ratioP1;P1;durP2;ratioP2;P2;SDS_P1;SDS_P2;PMS_P1;PMS_P2;Temp;Humidity;BMP_temperature;BMP_pressure;BME280_temperature;BME280_humidity;BME280_pressure;Samples;Min_cycle;Max_cycle;Signal;HPM_P1;HPM_P2
2022/06/29 00:02:18;;;;;;;23.35;9.88;;;15.00;99.90;;;;;;4961656;28;20097;-72
2022/06/29 00:04:43;;;;;;;24.13;10.13;;;15.10;99.90;;;;;;4961632;28;20046;-72
2022/06/29 00:07:09;;;;;;;19.20;10.20;;;15.00;99.90;;;;;;4962870;28;20058;-74
2022/06/29 00:09:35;;;;;;;20.27;10.85;;;14.90;99.90;;;;;;4962122;28;20043;-72
2022/06/29 00:12:00;;;;;;;22.80;10.30;;;15.00;99.90;;;;;;4944841;28;20458;-72
2022/06/29 00:14:26;;;;;;;19.60;10.13;;;14.90;99.90;;;;;;4962053;28;20039;-72
2022/06/29 00:16:51;;;;;;;18.77;10.75;;;14.90;99.90;;;;;;4945395;29;20039;-73
2022/06/29 00:19:17;;;;;;;19.13;11.38;;;14.90;99.90;;;;;;4961435;28;20034;-74
2022/06/29 00:21:43;;;;;;;25.00;10.90;;;14.90;99.90;;;;;;4977325;28;20037;-73
2022/06/29 00:24:08;;;;;;;21.92;10.52;;;14.90;99.90;;;;;;4944696;28;20027;-73
2022/06/29 00:26:34;;;;;;;22.17;10.48;;;14.80;99.90;;;;;;4944150;28;20046;-72
2022/06/29 00:29:00;;;;;;;16.67;10.10;;;14.90;99.90;;;;;;4960391;28;20035;-72
2022/06/29 00:31:25;;;;;;;19.38;10.05;;;14.90;99.90;;;;;;4962056;28;20038;-71
2022/06/29 00:33:51;;;;;;;23.80;10.60;;;14.80;99.90;;;;;;4952921;28;20049;-73
2022/06/29 00:36:16;;;;;;;21.40;10.35;;;14.80;99.90;;;;;;4962293;28;20056;-74
2022/06/29 00:38:42;;;;;;;19.98;10.38;;;14.90;99.90;;;;;;4951648;28;20042;-73
2022/06/29 00:41:08;;;;;;;21.48;10.40;;;14.80;99.90;;;;;;4965064;28;20442;-72
2022/06/29 00:43:41;;;;;;;25.08;10.15;;;14.80;99.90;;;;;;4961146;28;20038;-73
2022/06/29 00:46:06;;;;;;;20.58;10.10;;;14.70;99.90;;;;;;4957412;28;20430;-73
2022/06/29 00:48:32;;;;;;;23.98;10.98;;;14.70;99.90;;;;;;4960186;28;20129;-73
2022/06/29 00:51:00;;;;;;;19.92;10.57;;;14.70;99.90;;;;;;4942815;28;20486;-72
2022/06/29 00:53:27;;;;;;;17.25;10.90;;;14.70;99.90;;;;;;4961981;28;20042;-73
2022/06/29 00:55:56;;;;;;;19.27;11.27;;;14.70;99.90;;;;;;4965379;28;20508;-73
2022/06/29 00:58:26;;;;;;;17.00;10.52;;;14.70;99.90;;;;;;4958008;28;20089;-72
2022/06/29 01:00:52;;;;;;;24.70;10.38;;;14.60;99.90;;;;;;4945667;28;20138;-74
2022/06/29 01:03:17;;;;;;;15.85;10.23;;;14.70;99.90;;;;;;4968276;28;20118;-72
2022/06/29 01:05:43;;;;;;;21.33;11.00;;;14.70;99.90;;;;;;4966866;28;20043;-72
2022/06/29 01:08:11;;;;;;;19.02;10.52;;;14.70;99.90;;;;;;4958953;28;20043;-74
2022/06/29 01:10:37;;;;;;;17.60;10.43;;;14.70;99.90;;;;;;4980802;28;20493;-71
2022/06/29 01:13:02;;;;;;;21.80;10.02;;;14.70;99.90;;;;;;4972365;28;20093;-73
2022/06/29 01:15:28;;;;;;;23.80;10.73;;;14.70;99.90;;;;;;4961320;28;20532;-71
2022/06/29 01:17:54;;;;;;;20.00;10.43;;;14.80;99.90;;;;;;4962772;28;20046;-72
2022/06/29 01:20:20;;;;;;;18.75;10.48;;;14.80;99.90;;;;;;4961539;28;20441;-71
2022/06/29 01:22:46;;;;;;;21.58;10.70;;;14.80;99.90;;;;;;4967844;28;20039;-71
2022/06/29 01:25:12;;;;;;;23.63;11.95;;;14.80;99.90;;;;;;4962712;28;20042;-73
2022/06/29 01:27:38;;;;;;;19.25;11.20;;;14.80;99.90;;;;;;4961416;28;20041;-72
2022/06/29 01:30:07;;;;;;;19.25;11.68;;;14.80;99.90;;;;;;4954621;28;20057;-73
2022/06/29 01:32:33;;;;;;;17.98;10.93;;;14.80;99.90;;;;;;4958417;28;20117;-72
2022/06/29 01:34:59;;;;;;;24.08;11.63;;;14.80;99.90;;;;;;4957054;28;20485;-72
2022/06/29 01:37:25;;;;;;;16.65;10.50;;;14.80;99.90;;;;;;4961456;28;20041;-71
2022/06/29 01:39:51;;;;;;;16.63;10.25;;;14.80;99.90;;;;;;4957779;28;20043;-71
2022/06/29 01:42:16;;;;;;;20.45;10.90;;;14.80;99.90;;;;;;4967405;28;20078;-72
2022/06/29 01:44:42;;;;;;;18.23;11.20;;;14.80;99.90;;;;;;4968229;28;20177;-71
2022/06/29 01:47:07;;;;;;;21.40;10.50;;;14.70;99.90;;;;;;4957693;28;20481;-70
2022/06/29 01:49:33;;;;;;;16.48;11.32;;;14.80;99.90;;;;;;4958112;28;20042;-72
2022/06/29 01:51:58;;;;;;;19.85;11.07;;;14.80;99.90;;;;;;4958182;28;20050;-70
2022/06/29 01:54:24;;;;;;;18.33;10.13;;;14.80;99.90;;;;;;4957728;28;20035;-72
2022/06/29 01:56:50;;;;;;;21.58;11.00;;;14.70;99.90;;;;;;4957273;28;20118;-75
2022/06/29 01:59:15;;;;;;;21.25;10.98;;;14.70;99.90;;;;;;4957818;28;20030;-72
2022/06/29 02:01:41;;;;;;;21.25;11.00;;;14.70;99.90;;;;;;4962291;28;20035;-70
2022/06/29 02:04:07;;;;;;;17.00;11.00;;;14.70;99.90;;;;;;4957907;28;20110;-73
2022/06/29 02:06:32;;;;;;;16.60;10.95;;;14.70;99.90;;;;;;4942676;28;20387;-71
2022/06/29 02:09:25;;;;;;;19.95;11.32;;;14.70;99.90;;;;;;4955068;28;20046;-70
2022/06/29 02:11:51;;;;;;;20.58;11.63;;;14.70;99.90;;;;;;4990545;28;20043;-72
2022/06/29 02:14:16;;;;;;;18.92;11.68;;;14.80;99.90;;;;;;4955448;28;20049;-71
2022/06/29 02:16:42;;;;;;;18.02;11.10;;;14.70;99.90;;;;;;4960134;28;20449;-70
2022/06/29 02:19:08;;;;;;;22.85;10.98;;;14.70;99.90;;;;;;4961772;28;20061;-69
2022/06/29 02:21:33;;;;;;;19.98;11.55;;;14.80;99.90;;;;;;4963390;28;20405;-72
2022/06/29 02:23:59;;;;;;;25.60;12.48;;;14.80;99.90;;;;;;4957623;28;20042;-71
2022/06/29 02:26:25;;;;;;;22.02;12.93;;;14.70;99.90;;;;;;4969527;28;20127;-71
2022/06/29 02:28:50;;;;;;;24.23;12.57;;;14.80;99.90;;;;;;4940166;28;20042;-72
2022/06/29 02:36:44;;;;;;;21.42;12.60;;;14.80;99.90;;;;;;4957090;28;20065;-72
2022/06/29 02:39:10;;;;;;;23.95;12.85;;;14.80;99.90;;;;;;4957519;28;20047;-72
2022/06/29 02:41:35;;;;;;;21.85;12.25;;;14.90;99.90;;;;;;4945604;28;20122;-70
2022/06/29 02:44:01;;;;;;;20.60;12.82;;;14.90;99.90;;;;;;4962868;28;20040;-74
2022/06/29 02:46:26;;;;;;;23.13;14.20;;;14.90;99.90;;;;;;4971665;28;20138;-71
2022/06/29 02:48:52;;;;;;;22.10;13.38;;;14.90;99.90;;;;;;4966422;28;20042;-71
2022/06/29 02:51:18;;;;;;;25.10;12.75;;;14.90;99.90;;;;;;4936650;28;20374;-72
2022/06/29 02:53:43;;;;;;;22.40;13.27;;;14.90;99.90;;;;;;4956739;28;20046;-69
2022/06/29 02:59:50;;;;;;;24.52;16.08;;;14.90;99.90;;;;;;4955292;29;20434;-73
2022/06/29 03:02:16;;;;;;;22.35;14.43;;;15.00;99.90;;;;;;4941449;28;20034;-73
2022/06/29 03:04:41;;;;;;;23.30;14.02;;;14.90;99.90;;;;;;4941481;28;20042;-73
2022/06/29 03:07:07;;;;;;;23.75;14.40;;;14.90;99.90;;;;;;4941527;28;20054;-71
2022/06/29 03:09:32;;;;;;;27.33;14.48;;;14.90;99.90;;;;;;4956906;28;20078;-71
2022/06/29 03:11:58;;;;;;;26.85;13.85;;;14.90;99.90;;;;;;4957074;28;20039;-72
2022/06/29 03:14:24;;;;;;;23.88;14.20;;;14.90;99.90;;;;;;4941826;28;20050;-71
2022/06/29 03:16:50;;;;;;;23.50;13.85;;;14.80;99.90;;;;;;4958581;28;20058;-71
2022/06/29 03:19:15;;;;;;;22.27;14.18;;;14.80;99.90;;;;;;4955025;28;20041;-72
2022/06/29 03:21:41;;;;;;;25.55;14.20;;;14.80;99.90;;;;;;4952004;28;20047;-73
2022/06/29 03:24:07;;;;;;;24.10;14.38;;;14.90;99.90;;;;;;4966053;28;20452;-72
2022/06/29 03:26:32;;;;;;;28.80;14.13;;;14.80;99.90;;;;;;4957320;28;20047;-73
2022/06/29 03:28:58;;;;;;;24.15;14.18;;;14.80;99.90;;;;;;4958236;28;20070;-72
2022/06/29 03:31:24;;;;;;;27.30;14.23;;;14.80;99.90;;;;;;4956915;28;20038;-70
2022/06/29 03:33:50;;;;;;;21.85;14.60;;;14.70;99.90;;;;;;4957443;28;20398;-71
2022/06/29 03:36:16;;;;;;;26.75;14.65;;;14.70;99.90;;;;;;4972491;28;20122;-72
2022/06/29 03:38:41;;;;;;;22.75;13.93;;;14.70;99.90;;;;;;4956785;28;20042;-72
2022/06/29 03:41:07;;;;;;;20.98;13.88;;;14.60;99.90;;;;;;4956975;28;20046;-72
2022/06/29 03:43:33;;;;;;;25.90;14.25;;;14.70;99.90;;;;;;4956899;28;20070;-72
2022/06/29 03:46:33;;;;;;;21.13;14.50;;;14.60;99.90;;;;;;4940205;28;20046;-71
2022/06/29 03:48:59;;;;;;;26.63;14.45;;;14.60;99.90;;;;;;4952718;28;20130;-73
2022/06/29 03:51:24;;;;;;;27.52;15.23;;;14.50;99.90;;;;;;4941490;28;20130;-72
2022/06/29 03:53:51;;;;;;;24.25;13.98;;;14.60;99.90;;;;;;4960279;28;20073;-70
2022/06/29 03:56:17;;;;;;;26.80;14.90;;;14.50;99.90;;;;;;4960259;28;20109;-72
2022/06/29 03:58:43;;;;;;;25.80;15.50;;;14.60;99.90;;;;;;4970950;28;20117;-72
2022/06/29 04:01:08;;;;;;;27.65;15.95;;;14.60;99.90;;;;;;4973026;28;20042;-71
2022/06/29 04:03:34;;;;;;;31.17;16.17;;;14.60;99.90;;;;;;4940623;29;20568;-73
2022/06/29 04:06:00;;;;;;;26.48;15.98;;;14.60;99.90;;;;;;4966304;28;20061;-72
2022/06/29 04:08:25;;;;;;;30.30;15.45;;;14.60;99.90;;;;;;4960406;28;20041;-70
2022/06/29 04:10:51;;;;;;;23.35;14.90;;;14.60;99.90;;;;;;4956514;29;20047;-71
2022/06/29 04:13:17;;;;;;;26.23;16.33;;;14.70;99.90;;;;;;4955958;28;20061;-71
2022/06/29 04:15:43;;;;;;;30.92;16.17;;;14.70;99.90;;;;;;4960165;28;20039;-70
2022/06/29 04:18:08;;;;;;;26.63;16.40;;;14.70;99.90;;;;;;4959099;28;20482;-69
2022/06/29 04:23:18;;;;;;;25.95;16.67;;;14.80;99.90;;;;;;4972431;28;20050;-71
2022/06/29 04:25:44;;;;;;;28.85;17.02;;;14.80;99.90;;;;;;4967202;28;20445;-72
2022/06/29 04:28:09;;;;;;;29.77;16.65;;;14.80;99.90;;;;;;4960115;28;20081;-71
2022/06/29 04:30:35;;;;;;;27.83;17.15;;;14.90;99.90;;;;;;4966957;28;20476;-71
2022/06/29 04:33:00;;;;;;;29.25;15.73;;;15.00;99.90;;;;;;4961396;28;20047;-72
2022/06/29 04:35:26;;;;;;;26.13;16.20;;;15.00;99.90;;;;;;4960744;28;20041;-71
2022/06/29 04:37:52;;;;;;;28.50;17.13;;;15.10;99.90;;;;;;4964562;28;20093;-71
2022/06/29 04:40:17;;;;;;;30.88;16.95;;;15.10;99.90;;;;;;4961909;28;20090;-73
2022/06/29 04:42:43;;;;;;;30.42;16.50;;;15.20;99.90;;;;;;4943510;28;20042;-72
2022/06/29 04:46:19;;;;;;;28.55;17.88;;;15.30;99.90;;;;;;4959418;28;20043;-73
2022/06/29 04:47:58;;;;;;;25.48;16.40;;;15.30;99.90;;;;;;4958741;28;20108;-72
2022/06/29 04:50:24;;;;;;;25.77;16.73;;;15.50;99.90;;;;;;4958591;28;20421;-71
2022/06/29 04:52:49;;;;;;;24.27;16.77;;;15.50;99.90;;;;;;4959014;28;20038;-72
2022/06/29 04:55:15;;;;;;;27.08;17.13;;;15.60;99.90;;;;;;4965735;28;20527;-71
2022/06/29 05:05:03;;;;;;;29.27;16.80;;;15.90;99.90;;;;;;4976178;28;20117;-72
2022/06/29 05:07:28;;;;;;;28.00;16.88;;;16.00;99.90;;;;;;4959069;28;20113;-74
2022/06/29 05:09:54;;;;;;;28.98;17.85;;;16.10;99.90;;;;;;4943078;28;20139;-74
2022/06/29 05:12:20;;;;;;;31.25;17.63;;;16.30;99.90;;;;;;4942055;28;20584;-72
2022/06/29 05:14:45;;;;;;;30.73;17.65;;;16.30;99.90;;;;;;4958222;28;20074;-72
2022/06/29 05:17:11;;;;;;;22.90;17.02;;;16.40;99.90;;;;;;4958835;28;20117;-73
2022/06/29 05:19:37;;;;;;;24.88;16.73;;;16.50;99.90;;;;;;4957662;28;20043;-74
2022/06/29 05:22:02;;;;;;;24.42;16.73;;;16.70;99.90;;;;;;4940184;28;20557;-74
2022/06/29 05:24:28;;;;;;;29.73;17.08;;;16.70;99.90;;;;;;4936438;28;20138;-71
2022/06/29 05:26:53;;;;;;;24.73;16.95;;;16.80;99.90;;;;;;4954034;28;20113;-71
2022/06/29 05:29:19;;;;;;;21.67;16.48;;;16.90;99.90;;;;;;4950094;29;20036;-73
2022/06/29 05:31:45;;;;;;;30.35;17.30;;;17.10;99.90;;;;;;4955775;28;20031;-71
2022/06/29 05:34:11;;;;;;;27.98;16.70;;;17.20;99.90;;;;;;4958094;28;20035;-72
2022/06/29 05:36:36;;;;;;;25.40;16.88;;;17.30;99.90;;;;;;4958824;28;20042;-74
2022/06/29 05:39:02;;;;;;;24.13;17.30;;;17.40;99.90;;;;;;4963077;28;20043;-76
2022/06/29 05:41:28;;;;;;;27.50;17.30;;;17.50;99.90;;;;;;4970867;28;20034;-74
2022/06/29 05:43:54;;;;;;;21.27;15.05;;;17.70;99.90;;;;;;4948509;28;20047;-73
2022/06/29 05:46:22;;;;;;;25.33;15.63;;;17.70;99.90;;;;;;4968985;28;20046;-75
2022/06/29 05:48:48;;;;;;;22.08;15.55;;;17.90;99.90;;;;;;4961206;28;20042;-79
2022/06/29 05:51:13;;;;;;;25.85;15.02;;;18.00;99.90;;;;;;4958901;28;20038;-78
2022/06/29 05:53:39;;;;;;;24.40;15.40;;;18.10;99.90;;;;;;4958273;28;20050;-75
2022/06/29 05:56:04;;;;;;;22.45;14.90;;;18.30;99.90;;;;;;4959233;28;20046;-76
2022/06/29 05:58:30;;;;;;;23.30;14.77;;;18.30;99.90;;;;;;4958864;28;20510;-75
2022/06/29 06:00:55;;;;;;;28.45;14.73;;;18.50;99.90;;;;;;4957448;28;21273;-74
2022/06/29 06:03:21;;;;;;;22.17;15.15;;;18.60;99.90;;;;;;4956720;28;20034;-75
2022/06/29 06:05:47;;;;;;;23.85;14.15;;;18.70;99.90;;;;;;4952068;28;20038;-72
2022/06/29 06:08:15;;;;;;;19.08;14.10;;;18.70;99.90;;;;;;4966286;28;20048;-80
2022/06/29 06:10:41;;;;;;;31.20;14.75;;;18.90;99.90;;;;;;4954998;28;20058;-75
2022/06/29 06:13:07;;;;;;;23.55;14.15;;;19.00;99.90;;;;;;4957308;28;20401;-75
2022/06/29 06:15:34;;;;;;;21.00;14.32;;;19.10;99.90;;;;;;4963777;28;20467;-76
2022/06/29 06:18:01;;;;;;;20.60;12.77;;;19.20;99.90;;;;;;4957255;28;20333;-72
2022/06/29 06:20:28;;;;;;;20.48;12.90;;;19.30;99.90;;;;;;4990094;28;20087;-76
2022/06/29 06:22:54;;;;;;;20.08;12.73;;;19.40;99.90;;;;;;4971477;28;20143;-78
2022/06/29 06:25:19;;;;;;;19.35;12.65;;;19.50;99.90;;;;;;4958456;28;20070;-77
2022/06/29 06:27:45;;;;;;;18.92;12.05;;;19.50;99.90;;;;;;4950972;28;20039;-75
2022/06/29 06:30:11;;;;;;;17.42;11.57;;;19.70;99.90;;;;;;4953835;28;20043;-78
2022/06/29 06:32:37;;;;;;;20.40;11.57;;;19.80;99.90;;;;;;4960545;28;20038;-74
2022/06/29 06:35:03;;;;;;;17.85;11.35;;;19.80;99.90;;;;;;4970474;28;20042;-73
2022/06/29 06:37:28;;;;;;;15.93;10.52;;;20.00;99.90;;;;;;4964849;28;20070;-75
2022/06/29 06:42:40;;;;;;;18.55;11.15;;;20.10;99.90;;;;;;4956889;28;20081;-76
2022/06/29 06:45:06;;;;;;;15.77;9.80;;;20.20;99.90;;;;;;4951474;28;20088;-77
2022/06/29 06:47:31;;;;;;;17.25;10.02;;;20.30;99.90;;;;;;4966695;28;20041;-77
2022/06/29 06:49:57;;;;;;;18.88;11.23;;;20.40;99.90;;;;;;4950888;28;20035;-77
2022/06/29 06:52:23;;;;;;;20.02;11.48;;;20.50;99.90;;;;;;4953716;28;20134;-75
2022/06/29 06:54:48;;;;;;;18.35;11.23;;;20.60;99.90;;;;;;4935698;28;20394;-77
2022/06/29 06:57:14;;;;;;;19.55;11.60;;;20.60;99.90;;;;;;4952342;28;20039;-74
2022/06/29 06:59:39;;;;;;;16.45;11.73;;;20.70;99.90;;;;;;4957769;28;20125;-75
2022/06/29 07:02:05;;;;;;;17.40;11.25;;;20.70;99.90;;;;;;4954933;28;20030;-75
2022/06/29 07:04:31;;;;;;;17.10;11.50;;;20.80;99.90;;;;;;4955672;28;20070;-78
2022/06/29 07:06:57;;;;;;;20.33;11.13;;;20.90;99.90;;;;;;4938159;28;20046;-74
2022/06/29 07:09:22;;;;;;;18.90;11.13;;;21.00;99.90;;;;;;4955487;28;20085;-76
2022/06/29 07:11:48;;;;;;;19.42;10.65;;;21.10;99.90;;;;;;4951870;28;20453;-75
2022/06/29 07:14:13;;;;;;;19.15;10.60;;;21.20;99.90;;;;;;4953565;28;20030;-77
2022/06/29 07:16:39;;;;;;;15.15;10.18;;;21.30;99.90;;;;;;4953898;28;20090;-75
2022/06/29 07:19:05;;;;;;;17.90;11.30;;;21.40;99.90;;;;;;4973094;28;20031;-80
2022/06/29 07:21:30;;;;;;;13.52;10.65;;;21.50;99.90;;;;;;4972773;28;20047;-73
2022/06/29 07:23:58;;;;;;;18.08;9.88;;;21.60;99.90;;;;;;4971363;28;20066;-75
2022/06/29 07:26:27;;;;;;;21.05;10.05;;;21.70;99.90;;;;;;4966241;28;20039;-76
2022/06/29 07:28:53;;;;;;;18.27;10.27;;;21.80;99.90;;;;;;4948500;28;20039;-73
2022/06/29 07:31:19;;;;;;;14.23;10.00;;;21.90;99.90;;;;;;4941565;29;20106;-77
2022/06/29 07:33:44;;;;;;;17.92;9.60;;;22.00;99.90;;;;;;4940123;29;20043;-73
2022/06/29 07:36:10;;;;;;;16.08;10.18;;;22.10;99.90;;;;;;4939186;29;20075;-74
2022/06/29 07:38:36;;;;;;;15.02;9.32;;;22.10;99.90;;;;;;4952231;28;20062;-74
2022/06/29 07:41:02;;;;;;;19.90;8.88;;;22.20;99.90;;;;;;4957838;28;20130;-77
2022/06/29 07:43:28;;;;;;;16.23;10.35;;;22.20;99.90;;;;;;4958810;28;20050;-76
2022/06/29 07:45:57;;;;;;;14.32;9.20;;;22.30;99.90;;;;;;4988184;28;20042;-62
2022/06/29 07:48:23;;;;;;;14.77;9.60;;;22.40;99.90;;;;;;4952149;28;20039;-79
2022/06/29 07:50:48;;;;;;;13.55;9.07;;;22.40;99.90;;;;;;4977114;28;20074;-80
2022/06/29 07:53:14;;;;;;;13.65;8.77;;;22.50;99.90;;;;;;4961000;28;20046;-78
2022/06/29 07:55:40;;;;;;;16.48;9.18;;;22.60;99.90;;;;;;4959898;28;20520;-78
2022/06/29 07:58:06;;;;;;;15.35;8.88;;;22.70;99.90;;;;;;4959922;28;20042;-78
2022/06/29 08:00:32;;;;;;;17.38;9.45;;;22.70;99.90;;;;;;4959336;28;20049;-78
2022/06/29 08:02:58;;;;;;;17.35;9.23;;;22.80;99.90;;;;;;4959034;28;20039;-75
2022/06/29 08:05:24;;;;;;;14.77;9.85;;;22.90;99.90;;;;;;4959306;28;20130;-78
2022/06/29 08:07:49;;;;;;;14.52;9.75;;;23.00;99.90;;;;;;4957498;28;20042;-76
2022/06/29 08:10:15;;;;;;;12.68;8.80;;;23.10;99.90;;;;;;4959038;28;20042;-76
2022/06/29 08:12:41;;;;;;;13.98;8.18;;;23.10;99.90;;;;;;4959162;28;20390;-77
2022/06/29 08:15:07;;;;;;;14.10;8.13;;;23.00;99.90;;;;;;4960909;28;20043;-77
2022/06/29 08:17:33;;;;;;;17.58;8.63;;;23.00;99.90;;;;;;4957540;28;20402;-77
2022/06/29 08:19:59;;;;;;;12.15;8.27;;;23.10;99.90;;;;;;4951552;29;20046;-77
2022/06/29 08:22:25;;;;;;;24.60;9.65;;;23.20;99.90;;;;;;4940804;29;20035;-79
2022/06/29 08:24:50;;;;;;;14.63;8.63;;;23.30;99.90;;;;;;4941258;29;20043;-72
2022/06/29 08:27:20;;;;;;;16.15;9.15;;;23.30;99.90;;;;;;4938811;29;20050;-76
2022/06/29 08:29:46;;;;;;;18.98;8.60;;;23.50;99.90;;;;;;4947929;28;20046;-79
2022/06/29 08:32:12;;;;;;;15.35;8.77;;;23.50;99.90;;;;;;4957925;28;20049;-77
2022/06/29 08:34:40;;;;;;;12.15;8.80;;;23.60;99.90;;;;;;4943942;29;20478;-74
2022/06/29 08:37:06;;;;;;;11.82;8.23;;;23.70;99.90;;;;;;4952848;28;20044;-71
2022/06/29 08:39:32;;;;;;;17.63;8.30;;;23.80;99.90;;;;;;4937374;29;20530;-71
2022/06/29 08:42:03;;;;;;;17.50;8.93;;;23.90;99.90;;;;;;4937615;29;20067;-69
2022/06/29 08:44:33;;;;;;;12.93;8.13;;;24.00;99.90;;;;;;4941618;28;20034;-76
2022/06/29 08:47:01;;;;;;;13.55;8.57;;;24.10;99.90;;;;;;4950127;28;20464;-79
2022/06/29 08:49:26;;;;;;;16.67;8.43;;;24.20;99.90;;;;;;4958707;28;20050;-77
2022/06/29 08:51:55;;;;;;;16.48;8.52;;;24.00;99.90;;;;;;4957618;28;20099;-76
2022/06/29 08:54:23;;;;;;;13.40;8.55;;;24.00;99.90;;;;;;4955771;28;20061;-76
2022/06/29 08:56:49;;;;;;;12.20;7.53;;;23.90;99.90;;;;;;4956637;28;20093;-79
2022/06/29 08:59:15;;;;;;;14.35;7.90;;;24.00;99.90;;;;;;4953856;28;20027;-76
2022/06/29 09:01:40;;;;;;;11.52;8.57;;;24.10;99.90;;;;;;4957180;28;20129;-77
2022/06/29 09:04:07;;;;;;;17.38;9.32;;;24.30;99.90;;;;;;4958529;28;20034;-79
2022/06/29 09:06:33;;;;;;;14.10;9.13;;;24.50;99.90;;;;;;4956497;28;20056;-77
2022/06/29 09:08:59;;;;;;;15.70;9.00;;;24.60;99.90;;;;;;4958447;28;20050;-74
2022/06/29 09:11:30;;;;;;;15.85;8.52;;;24.70;99.90;;;;;;4957231;28;20035;-79
2022/06/29 09:14:17;;;;;;;17.15;8.60;;;24.90;99.90;;;;;;4957634;28;20050;-78
2022/06/29 09:17:00;;;;;;;12.73;8.18;;;24.90;99.90;;;;;;4937579;29;20050;-76
2022/06/29 09:19:47;;;;;;;10.88;8.35;;;24.90;99.90;;;;;;4950868;28;20044;-78
2022/06/29 09:22:13;;;;;;;20.92;8.65;;;25.00;99.90;;;;;;4948954;28;20123;-75
2022/06/29 09:24:39;;;;;;;13.48;8.60;;;25.10;99.90;;;;;;4939009;29;20130;-77
2022/06/29 09:27:07;;;;;;;13.70;8.23;;;25.20;99.90;;;;;;4941197;28;20494;-77
2022/06/29 09:29:41;;;;;;;14.45;8.23;;;25.30;99.90;;;;;;4959093;28;20043;-77
2022/06/29 09:32:09;;;;;;;11.35;8.73;;;25.40;99.90;;;;;;4957577;28;20039;-75
2022/06/29 09:34:47;;;;;;;13.85;8.68;;;25.40;99.90;;;;;;4966613;28;20035;-77
2022/06/29 09:37:15;;;;;;;15.27;8.93;;;25.50;99.90;;;;;;4957540;28;20065;-78
2022/06/29 09:39:54;;;;;;;15.32;9.38;;;25.50;99.90;;;;;;4957895;28;20622;-75
2022/06/29 09:42:25;;;;;;;16.45;8.93;;;25.50;99.90;;;;;;4959006;28;20125;-77
2022/06/29 09:44:51;;;;;;;15.57;8.95;;;25.50;99.90;;;;;;4968187;28;20046;-77
2022/06/29 09:47:19;;;;;;;11.88;7.47;;;25.50;99.90;;;;;;4959889;28;20445;-75
2022/06/29 09:50:00;;;;;;;9.20;7.75;;;25.50;99.90;;;;;;4973806;28;20039;-77
2022/06/29 09:52:26;;;;;;;13.95;7.68;;;25.70;99.90;;;;;;4957330;28;20050;-76
2022/06/29 09:54:57;;;;;;;16.20;7.82;;;25.80;99.90;;;;;;4955981;28;20133;-78
2022/06/29 09:57:26;;;;;;;14.40;8.02;;;25.60;99.90;;;;;;4958260;28;20043;-76
2022/06/29 10:02:51;;;;;;;14.35;8.07;;;25.20;99.90;;;;;;4949622;28;20154;-76
2022/06/29 10:05:23;;;;;;;12.85;8.75;;;25.10;99.90;;;;;;4956391;28;20129;-77
2022/06/29 10:07:51;;;;;;;14.00;8.15;;;25.10;99.90;;;;;;4958549;28;20042;-77
2022/06/29 10:10:23;;;;;;;15.25;8.77;;;25.20;99.90;;;;;;4950922;28;20125;-77
2022/06/29 10:16:00;;;;;;;18.20;8.95;;;25.50;99.90;;;;;;4948293;29;20058;-76
2022/06/29 10:18:50;;;;;;;16.75;8.68;;;25.70;99.90;;;;;;4941917;28;20041;-76
2022/06/29 10:21:25;;;;;;;11.57;8.18;;;25.80;99.90;;;;;;4984443;28;20264;-76
2022/06/29 10:23:53;;;;;;;11.88;7.90;;;25.80;99.90;;;;;;4961605;28;20298;-76
2022/06/29 10:26:37;;;;;;;13.25;7.32;;;25.80;99.90;;;;;;4967223;28;20086;-76
2022/06/29 10:29:06;;;;;;;12.98;8.38;;;26.00;99.90;;;;;;4972752;28;20097;-77
2022/06/29 10:31:50;;;;;;;13.25;6.97;;;26.20;99.90;;;;;;4966368;28;20080;-77
2022/06/29 10:34:31;;;;;;;11.00;7.43;;;26.40;99.90;;;;;;4967691;28;20034;-76
2022/06/29 10:37:02;;;;;;;13.82;8.35;;;26.50;99.90;;;;;;4965452;28;20038;-76
2022/06/29 10:39:43;;;;;;;15.25;8.13;;;26.50;99.90;;;;;;4953522;28;20046;-76
2022/06/29 10:45:33;;;;;;;11.88;7.60;;;26.60;99.90;;;;;;4955215;28;20050;-76
2022/06/29 10:48:06;;;;;;;12.55;7.10;;;26.70;99.90;;;;;;4950097;29;20051;-75
2022/06/29 10:50:32;;;;;;;9.93;7.70;;;26.80;99.90;;;;;;4944658;28;20057;-76
2022/06/29 10:53:06;;;;;;;13.43;8.07;;;26.90;99.90;;;;;;4954501;28;20047;-76
2022/06/29 10:55:34;;;;;;;11.85;8.27;;;27.00;99.90;;;;;;4956414;28;20050;-77
2022/06/29 10:58:01;;;;;;;14.38;7.47;;;26.90;99.90;;;;;;4949871;28;20047;-76
2022/06/29 11:00:30;;;;;;;18.58;7.70;;;26.90;99.90;;;;;;4972479;28;20112;-75
2022/06/29 11:02:56;;;;;;;11.88;8.07;;;26.80;99.90;;;;;;4958750;28;20039;-75
2022/06/29 11:05:22;;;;;;;17.73;8.45;;;26.80;99.90;;;;;;4959121;28;20049;-75
2022/06/29 11:13:33;;;;;;;14.07;9.10;;;26.40;99.90;;;;;;4939861;28;20489;-76
2022/06/29 11:16:00;;;;;;;16.10;9.68;;;26.30;99.90;;;;;;4944440;28;20094;-76
2022/06/29 11:18:31;;;;;;;15.95;10.85;;;26.20;99.90;;;;;;4969802;28;20035;-76
2022/06/29 11:21:04;;;;;;;18.67;10.98;;;26.30;99.90;;;;;;4964889;28;20034;-78
2022/06/29 11:23:32;;;;;;;19.02;11.13;;;26.30;99.90;;;;;;4971777;28;20066;-75
2022/06/29 11:26:00;;;;;;;17.60;11.55;;;26.30;99.90;;;;;;4961668;28;20082;-78
2022/06/29 11:28:31;;;;;;;15.27;11.30;;;26.30;99.90;;;;;;4962160;28;20043;-76
2022/06/29 11:31:01;;;;;;;19.37;11.20;;;26.40;99.90;;;;;;4958911;28;20039;-78
2022/06/29 11:33:49;;;;;;;18.80;10.95;;;26.60;99.90;;;;;;4942942;29;20369;-75
2022/06/29 11:36:16;;;;;;;20.42;11.07;;;26.80;99.90;;;;;;4940975;29;20051;-76
2022/06/29 11:38:43;;;;;;;15.75;10.18;;;27.00;99.90;;;;;;4955961;28;20043;-75
2022/06/29 11:41:10;;;;;;;15.90;10.88;;;27.10;99.90;;;;;;4942180;29;20078;-76
2022/06/29 11:43:36;;;;;;;18.08;10.50;;;27.30;99.90;;;;;;4942714;29;20041;-76
2022/06/29 11:46:02;;;;;;;20.80;10.77;;;27.30;99.90;;;;;;4958100;28;20126;-76
2022/06/29 11:48:29;;;;;;;19.20;11.50;;;27.30;99.90;;;;;;4957734;28;20533;-78
2022/06/29 11:50:57;;;;;;;22.98;12.32;;;27.40;99.90;;;;;;4976943;28;20126;-76
2022/06/29 11:53:42;;;;;;;18.83;12.43;;;27.30;99.90;;;;;;4958952;28;20046;-76
2022/06/29 11:56:13;;;;;;;17.40;12.05;;;27.10;99.90;;;;;;4961674;28;20106;-77
2022/06/29 11:58:41;;;;;;;17.98;12.40;;;26.90;99.90;;;;;;4993722;28;20049;-76
2022/06/29 12:01:11;;;;;;;21.00;11.73;;;26.70;99.90;;;;;;4961074;28;20409;-77
2022/06/29 12:03:38;;;;;;;22.05;13.38;;;26.60;99.90;;;;;;4945788;28;20043;-78
2022/06/29 12:06:03;;;;;;;22.73;12.55;;;26.60;99.90;;;;;;4941638;29;20086;-76
2022/06/29 12:08:32;;;;;;;20.60;12.25;;;26.60;99.90;;;;;;4941204;29;20469;-75
2022/06/29 12:10:58;;;;;;;17.52;12.35;;;26.60;99.90;;;;;;4957321;29;20167;-78
2022/06/29 12:13:26;;;;;;;17.98;11.98;;;26.70;99.90;;;;;;4955237;28;20538;-76
2022/06/29 12:15:52;;;;;;;23.45;12.55;;;26.70;99.90;;;;;;4945466;29;20054;-76
2022/06/29 12:18:18;;;;;;;24.92;12.82;;;26.60;99.90;;;;;;4939999;29;20039;-75
2022/06/29 12:20:44;;;;;;;22.10;12.98;;;26.60;99.90;;;;;;4939161;29;20035;-77
2022/06/29 12:23:09;;;;;;;18.40;12.43;;;26.70;99.90;;;;;;4939970;29;20518;-76
2022/06/29 12:25:36;;;;;;;21.38;12.70;;;26.70;99.90;;;;;;4939396;29;20444;-76
2022/06/29 12:28:02;;;;;;;18.95;12.38;;;26.70;99.90;;;;;;4939301;29;20047;-78
2022/06/29 12:30:28;;;;;;;20.00;12.20;;;26.70;99.90;;;;;;4955399;29;20047;-75
2022/06/29 12:32:54;;;;;;;18.45;13.07;;;26.80;99.90;;;;;;4942363;28;20073;-76
2022/06/29 12:35:19;;;;;;;21.63;13.02;;;26.80;99.90;;;;;;4957641;28;20047;-78
2022/06/29 12:37:45;;;;;;;22.95;13.52;;;26.80;99.90;;;;;;4958312;28;20101;-76
2022/06/29 12:40:11;;;;;;;22.00;13.30;;;26.80;99.90;;;;;;4958447;28;20567;-77
2022/06/29 12:42:38;;;;;;;21.40;13.13;;;26.90;99.90;;;;;;4957538;28;20405;-76
2022/06/29 12:45:04;;;;;;;19.27;12.05;;;27.00;99.90;;;;;;4957500;28;20101;-77
2022/06/29 12:47:30;;;;;;;20.50;12.40;;;27.00;99.90;;;;;;4957550;28;20078;-75
2022/06/29 12:49:56;;;;;;;23.85;13.15;;;27.10;99.90;;;;;;4939018;28;20078;-75
2022/06/29 12:52:24;;;;;;;20.23;13.18;;;27.10;99.90;;;;;;4953687;29;20046;-77
2022/06/29 12:54:50;;;;;;;28.77;13.63;;;27.10;99.90;;;;;;4938781;29;20047;-77
2022/06/29 12:57:19;;;;;;;23.98;12.93;;;27.10;99.90;;;;;;4937250;29;20039;-76
2022/06/29 12:59:45;;;;;;;18.85;12.13;;;27.10;99.90;;;;;;4937663;29;20035;-76
2022/06/29 13:02:12;;;;;;;18.95;12.63;;;27.10;99.90;;;;;;4938222;29;20039;-76
2022/06/29 13:04:37;;;;;;;22.83;13.02;;;27.10;99.90;;;;;;4938069;29;20090;-76
2022/06/29 13:07:03;;;;;;;19.63;13.35;;;27.10;99.90;;;;;;4947749;28;20038;-76
2022/06/29 13:09:29;;;;;;;20.52;13.82;;;27.10;99.90;;;;;;4957512;28;20046;-76